Time;durP1;ratioP1;P1;durP2;ratioP2;P2;SDS_P1;SDS_P2;PMS_P1;PMS_P2;Temp;Humidity;BMP_temperature;BMP_pressure;BME280_temperature;BME280_humidity;BME280_pressure;Samples;Min_cycle;Max_cycle;Signal;HPM_P1;HPM_P2
2022/03/14 00:00:58;;;;;;;4.35;2.30;;;;;;;10.25;68.96;101640.31;5113303;28;20027;-77
2022/03/14 00:03:25;;;;;;;3.60;2.28;;;;;;;10.23;68.64;101646.47;5113517;28;20033;-76
2022/03/14 00:05:50;;;;;;;5.15;2.22;;;;;;;10.17;68.67;101644.13;5113214;28;20110;-78
2022/03/14 00:08:16;;;;;;;4.68;2.38;;;;;;;10.20;68.83;101651.72;5113291;28;20457;-77
2022/03/14 00:10:45;;;;;;;3.90;2.30;;;;;;;10.17;69.03;101657.88;5111704;28;20031;-78
2022/03/14 00:13:19;;;;;;;3.33;2.10;;;;;;;10.15;69.17;101667.44;5113223;28;20024;-78
2022/03/14 00:15:44;;;;;;;3.92;2.33;;;;;;;10.13;69.10;101661.53;5113047;28;20070;-76
2022/03/14 00:18:10;;;;;;;3.92;2.42;;;;;;;9.98;69.37;101646.75;5113051;28;20483;-77
2022/03/14 00:20:41;;;;;;;5.07;2.45;;;;;;;10.09;69.35;101669.47;5113102;28;20057;-77
2022/03/14 00:23:07;;;;;;;4.87;2.60;;;;;;;10.10;69.18;101668.56;5112909;28;20012;-78
2022/03/14 00:25:33;;;;;;;3.78;2.17;;;;;;;10.08;69.64;101668.63;5112764;28;20338;-77
2022/03/14 00:27:59;;;;;;;5.13;2.53;;;;;;;9.83;69.42;101635.38;5112948;28;20148;-77
2022/03/14 00:30:25;;;;;;;4.10;2.38;;;;;;;10.06;69.40;101681.59;5112930;28;20036;-81
2022/03/14 00:32:50;;;;;;;4.25;2.58;;;;;;;10.07;69.67;101682.44;5133575;28;20020;-78
2022/03/14 00:35:16;;;;;;;4.57;2.45;;;;;;;9.98;69.46;101675.97;5133764;27;20024;-83
2022/03/14 00:37:41;;;;;;;4.97;2.42;;;;;;;10.06;69.47;101694.50;5133633;28;20038;-82
2022/03/14 00:40:08;;;;;;;4.25;2.45;;;;;;;10.05;69.44;101686.84;5133509;27;20034;-82
2022/03/14 00:42:35;;;;;;;5.80;3.00;;;;;;;10.04;69.63;101693.75;5133603;27;20030;-78
2022/03/14 00:45:00;;;;;;;5.85;2.60;;;;;;;9.94;70.17;101686.50;5133647;28;20094;-81
2022/03/14 00:47:26;;;;;;;5.82;2.78;;;;;;;9.90;69.90;101683.22;5133590;27;20027;-78
2022/03/14 00:49:51;;;;;;;5.10;2.80;;;;;;;10.00;69.82;101709.44;5133650;28;20133;-80
2022/03/14 00:52:17;;;;;;;4.95;2.70;;;;;;;9.85;69.90;101682.63;5115090;28;20027;-78
2022/03/14 00:54:43;;;;;;;4.53;2.63;;;;;;;9.99;69.96;101713.75;5133305;28;20106;-82
2022/03/14 00:57:08;;;;;;;4.78;2.80;;;;;;;9.91;70.05;101699.53;5133649;27;20031;-81
2022/03/14 00:59:34;;;;;;;4.57;2.88;;;;;;;9.98;70.15;101713.84;5133600;28;20034;-77
2022/03/14 01:02:00;;;;;;;4.75;2.80;;;;;;;9.92;70.05;101704.63;5133041;27;20030;-77
2022/03/14 01:04:26;;;;;;;4.70;2.72;;;;;;;9.79;70.28;101698.38;5133471;27;20019;-80
2022/03/14 01:06:51;;;;;;;5.15;2.58;;;;;;;9.94;70.57;101726.06;5132941;27;20114;-77
2022/03/14 01:09:17;;;;;;;6.07;2.67;;;;;;;9.93;70.54;101724.38;5133086;28;20023;-82
2022/03/14 01:11:43;;;;;;;5.53;3.20;;;;;;;9.84;70.71;101709.31;5133321;28;20031;-82
2022/03/14 01:14:09;;;;;;;5.18;3.10;;;;;;;9.91;71.94;101733.06;5133494;28;20047;-81
2022/03/14 01:16:35;;;;;;;5.85;3.17;;;;;;;9.91;72.57;101741.66;5132986;28;20371;-80
2022/03/14 01:19:00;;;;;;;6.30;3.10;;;;;;;9.85;73.08;101739.38;5133309;27;20026;-78
2022/03/14 01:21:30;;;;;;;6.10;3.40;;;;;;;9.82;73.70;101731.75;5133285;28;20034;-78
2022/03/14 01:23:57;;;;;;;5.45;3.05;;;;;;;9.79;73.85;101737.06;5114493;28;20034;-81
2022/03/14 01:26:22;;;;;;;5.78;3.10;;;;;;;9.78;73.58;101748.28;5132932;27;20031;-80
2022/03/14 01:28:48;;;;;;;5.32;3.38;;;;;;;9.75;74.08;101740.69;5132867;27;20204;-77
2022/03/14 01:31:14;;;;;;;6.07;3.30;;;;;;;9.54;74.10;101708.97;5132978;27;20069;-77
2022/03/14 01:33:39;;;;;;;6.15;3.45;;;;;;;9.54;74.28;101708.09;5134030;27;20390;-77
2022/03/14 01:36:04;;;;;;;6.53;3.30;;;;;;;9.67;74.59;101745.34;5136951;27;20038;-81
2022/03/14 01:38:30;;;;;;;5.30;3.40;;;;;;;9.63;74.31;101754.09;5136958;27;20019;-82
2022/03/14 01:40:55;;;;;;;5.90;2.97;;;;;;;9.63;74.25;101761.84;5136692;27;20517;-82
2022/03/14 01:43:25;;;;;;;6.03;3.70;;;;;;;9.59;74.68;101760.31;5136579;27;20070;-78
2022/03/14 01:45:54;;;;;;;6.15;3.47;;;;;;;9.41;74.63;101739.59;5136728;27;20030;-78
2022/03/14 01:48:19;;;;;;;6.10;3.40;;;;;;;9.38;74.78;101736.31;5136412;27;20015;-77
2022/03/14 01:50:44;;;;;;;6.65;3.63;;;;;;;9.51;74.82;101762.38;5136497;27;20387;-81
2022/03/14 01:53:11;;;;;;;6.03;3.60;;;;;;;9.50;74.99;101756.41;5136424;27;20356;-82
2022/03/14 01:55:37;;;;;;;7.18;3.80;;;;;;;9.51;74.77;101762.38;5136305;27;20102;-81
2022/03/14 01:58:03;;;;;;;4.85;3.28;;;;;;;9.44;74.99;101751.53;5136414;27;20419;-81
2022/03/14 02:00:29;;;;;;;5.97;3.38;;;;;;;9.53;74.77;101766.56;5136553;27;20027;-79
2022/03/14 02:02:54;;;;;;;6.57;3.97;;;;;;;9.50;75.16;101764.13;5136356;27;20462;-78
2022/03/14 02:05:20;;;;;;;6.32;3.40;;;;;;;9.48;75.07;101764.19;5136286;27;20631;-78
2022/03/14 02:07:45;;;;;;;6.63;3.58;;;;;;;9.35;75.24;101755.34;5136277;27;20019;-81
2022/03/14 02:10:11;;;;;;;6.15;4.00;;;;;;;9.41;75.05;101760.22;5136204;27;20027;-79
2022/03/14 02:12:36;;;;;;;6.55;3.80;;;;;;;9.32;75.28;101744.31;5136051;27;20030;-79
2022/03/14 02:15:02;;;;;;;7.03;3.90;;;;;;;9.42;75.38;101773.94;5136131;27;20038;-77
2022/03/14 02:17:27;;;;;;;6.68;3.90;;;;;;;9.55;75.23;101787.16;5135963;27;20055;-77
2022/03/14 02:19:53;;;;;;;6.57;3.88;;;;;;;9.38;75.44;101767.25;5136076;27;20031;-77
2022/03/14 02:22:19;;;;;;;7.72;4.05;;;;;;;9.52;74.89;101792.41;5135993;27;20019;-80
2022/03/14 02:24:47;;;;;;;6.63;3.90;;;;;;;9.56;75.04;101794.81;5135856;27;20062;-80
2022/03/14 02:27:13;;;;;;;7.10;3.90;;;;;;;9.57;75.09;101799.06;5135493;27;20070;-77
2022/03/14 02:29:40;;;;;;;8.45;4.72;;;;;;;9.54;75.11;101788.91;5135807;27;20019;-78
2022/03/14 02:32:07;;;;;;;7.85;4.28;;;;;;;9.57;75.15;101793.06;5135563;27;20102;-79
2022/03/14 02:34:33;;;;;;;8.25;4.30;;;;;;;9.57;75.35;101790.50;5135749;27;20027;-80
2022/03/14 02:36:58;;;;;;;8.30;4.50;;;;;;;9.47;75.42;101774.59;5116559;27;20037;-80
2022/03/14 02:39:24;;;;;;;7.53;4.45;;;;;;;9.54;75.42;101785.44;5135559;27;20098;-81
2022/03/14 02:41:50;;;;;;;6.63;4.30;;;;;;;9.43;75.65;101773.88;5135438;27;20080;-80
2022/03/14 02:44:15;;;;;;;8.68;4.75;;;;;;;9.39;75.20;101768.91;5135574;27;20076;-80
2022/03/14 02:46:41;;;;;;;7.20;4.90;;;;;;;9.56;75.65;101793.97;5135371;27;20019;-78
2022/03/14 02:49:11;;;;;;;7.20;4.38;;;;;;;9.46;75.65;101786.66;5135022;27;20049;-78
2022/03/14 02:51:41;;;;;;;7.70;5.20;;;;;;;9.33;75.48;101766.59;5135308;27;20085;-77
2022/03/14 02:54:08;;;;;;;8.13;5.07;;;;;;;9.40;75.88;101799.78;5135256;27;20121;-77
2022/03/14 02:56:37;;;;;;;7.22;4.47;;;;;;;9.38;76.04;101799.03;5134968;27;20106;-77
2022/03/14 02:59:04;;;;;;;7.05;4.47;;;;;;;9.49;75.87;101830.34;5134831;27;20027;-77
2022/03/14 03:01:29;;;;;;;7.18;4.95;;;;;;;9.45;76.13;101815.06;5135236;27;20031;-76
2022/03/14 03:03:55;;;;;;;7.95;5.10;;;;;;;9.46;76.14;101833.06;5134949;27;20474;-78
2022/03/14 03:06:23;;;;;;;9.73;5.35;;;;;;;9.45;76.37;101833.13;5134910;27;20028;-77
2022/03/14 03:08:52;;;;;;;7.72;4.90;;;;;;;9.42;76.56;101834.06;5134944;27;20035;-77
2022/03/14 03:11:19;;;;;;;7.35;4.60;;;;;;;9.43;76.51;101842.63;5134915;27;20031;-77
2022/03/14 03:13:47;;;;;;;6.90;4.35;;;;;;;9.13;76.50;101790.63;5134784;27;20030;-80
2022/03/14 03:16:16;;;;;;;6.80;4.65;;;;;;;9.23;76.59;101822.00;5116292;27;20035;-80
2022/03/14 03:18:46;;;;;;;7.43;4.72;;;;;;;9.31;76.28;101854.28;5134736;27;20152;-77
2022/03/14 03:21:11;;;;;;;6.85;4.63;;;;;;;9.23;76.62;101843.47;5134742;27;20068;-78
2022/03/14 03:23:38;;;;;;;8.43;5.18;;;;;;;9.20;76.38;101841.03;5116216;27;20027;-81
2022/03/14 03:26:04;;;;;;;8.48;5.38;;;;;;;9.27;76.32;101862.25;5134237;27;20023;-80
2022/03/14 03:28:35;;;;;;;7.05;4.47;;;;;;;9.25;76.47;101869.19;5134609;27;20122;-81
2022/03/14 03:31:09;;;;;;;8.20;4.97;;;;;;;9.22;76.62;101877.03;5134801;27;20023;-77
2022/03/14 03:33:36;;;;;;;8.93;4.97;;;;;;;9.19;76.97;101883.16;5134397;27;20026;-81
2022/03/14 03:36:02;;;;;;;7.30;4.75;;;;;;;9.14;77.04;101895.38;5134502;27;20038;-79
2022/03/14 03:38:28;;;;;;;7.50;4.88;;;;;;;8.99;77.10;101880.53;5134439;27;20031;-78
2022/03/14 03:40:53;;;;;;;6.85;4.82;;;;;;;8.83;77.63;101857.09;5134260;27;20054;-78
2022/03/14 03:43:19;;;;;;;8.18;5.47;;;;;;;8.92;77.94;101879.94;5134354;27;20023;-77
2022/03/14 03:45:44;;;;;;;7.50;5.03;;;;;;;9.06;78.24;101905.16;5115885;27;20493;-77
2022/03/14 03:48:09;;;;;;;7.55;5.25;;;;;;;8.97;78.59;101913.25;5134266;27;20509;-77
2022/03/14 03:50:35;;;;;;;7.88;5.45;;;;;;;8.78;78.93;101889.94;5134128;27;20027;-77
2022/03/14 03:53:00;;;;;;;7.28;4.97;;;;;;;8.79;79.53;101899.34;5134237;27;20031;-78
2022/03/14 03:55:25;;;;;;;9.13;5.80;;;;;;;8.83;79.92;101918.91;5133982;27;20023;-80
2022/03/14 03:57:51;;;;;;;8.18;5.80;;;;;;;8.91;80.38;101943.50;5133675;27;20035;-77
2022/03/14 04:00:17;;;;;;;7.40;5.00;;;;;;;8.76;80.54;101927.81;5115408;27;20120;-77
2022/03/14 04:02:44;;;;;;;9.10;6.07;;;;;;;8.86;80.62;101958.31;5134187;27;20023;-76
2022/03/14 04:05:13;;;;;;;8.57;6.10;;;;;;;8.79;80.90;101949.13;5133382;27;20432;-79
2022/03/14 04:07:40;;;;;;;10.93;7.50;;;;;;;8.59;82.17;101928.41;5133935;27;20030;-79
2022/03/14 04:10:06;;;;;;;9.55;6.70;;;;;;;8.74;82.70;101968.19;5133664;27;20026;-78
2022/03/14 04:12:34;;;;;;;11.13;6.80;;;;;;;8.55;83.01;101947.44;5133931;27;20027;-80
2022/03/14 04:15:00;;;;;;;9.57;6.85;;;;;;;8.65;83.23;101984.00;5133872;27;20152;-78
2022/03/14 04:17:28;;;;;;;9.95;6.80;;;;;;;8.60;83.14;101974.72;5133885;27;20035;-76
2022/03/14 04:19:54;;;;;;;10.52;7.18;;;;;;;8.55;83.58;101974.06;5114785;28;20035;-80
2022/03/14 04:22:19;;;;;;;10.60;7.38;;;;;;;8.50;83.52;101969.94;5115062;28;20030;-77
2022/03/14 04:24:45;;;;;;;9.75;6.63;;;;;;;8.45;83.67;101972.66;5133474;27;20461;-77
2022/03/14 04:27:11;;;;;;;10.88;7.40;;;;;;;8.48;83.72;101979.47;5133639;27;20065;-77
2022/03/14 04:29:36;;;;;;;10.50;7.30;;;;;;;8.44;83.67;101981.28;5114751;28;20788;-78
2022/03/14 04:32:02;;;;;;;10.15;7.55;;;;;;;8.48;83.80;101993.19;5133870;27;20023;-78
2022/03/14 04:34:28;;;;;;;11.18;6.90;;;;;;;8.46;83.99;101999.28;5115151;28;20102;-78
2022/03/14 04:36:53;;;;;;;10.38;7.25;;;;;;;8.43;84.22;102009.66;5133435;27;20035;-77
2022/03/14 04:39:20;;;;;;;13.38;7.07;;;;;;;8.21;84.45;101984.66;5133524;28;20017;-78
2022/03/14 04:41:45;;;;;;;10.73;7.75;;;;;;;8.30;85.10;102009.22;5133536;27;20424;-77
2022/03/14 04:44:11;;;;;;;12.70;7.57;;;;;;;8.24;85.58;102015.41;5133554;28;20015;-77
2022/03/14 04:46:36;;;;;;;12.43;8.07;;;;;;;8.17;85.79;102016.53;5133640;28;20019;-79
2022/03/14 04:49:07;;;;;;;11.57;8.15;;;;;;;8.03;86.15;102006.69;5133614;28;20076;-81
2022/03/14 04:51:32;;;;;;;12.23;8.20;;;;;;;7.87;86.11;101989.28;5133563;28;20019;-81
2022/03/14 04:53:58;;;;;;;12.45;8.35;;;;;;;8.07;86.56;102028.03;5133524;28;20019;-79
2022/03/14 04:56:23;;;;;;;12.25;8.57;;;;;;;7.99;86.97;102027.44;5133200;28;20054;-80
2022/03/14 04:58:49;;;;;;;12.27;9.30;;;;;;;8.02;87.07;102038.44;5113815;28;20039;-78
2022/03/14 05:01:15;;;;;;;14.52;9.75;;;;;;;8.04;87.12;102041.81;5133552;28;20027;-81
2022/03/14 05:03:40;;;;;;;13.32;9.10;;;;;;;7.92;86.88;102019.06;5133421;28;20030;-81
2022/03/14 05:06:06;;;;;;;12.55;9.10;;;;;;;7.85;86.88;102004.72;5133086;28;20023;-83
2022/03/14 05:08:34;;;;;;;13.20;9.48;;;;;;;8.04;86.87;102049.53;5134480;27;20034;-82
2022/03/14 05:10:59;;;;;;;13.88;9.43;;;;;;;7.98;86.91;102047.19;5137422;27;20026;-81
2022/03/14 05:13:25;;;;;;;14.45;9.65;;;;;;;7.98;87.08;102051.47;5137292;27;20019;-82
2022/03/14 05:15:50;;;;;;;14.43;9.70;;;;;;;7.83;87.00;102033.97;5137258;27;20023;-81
2022/03/14 05:18:16;;;;;;;13.30;9.85;;;;;;;8.03;87.02;102077.88;5137240;27;20050;-78
2022/03/14 05:20:41;;;;;;;14.98;9.55;;;;;;;7.94;87.16;102065.31;5117929;27;20061;-80
2022/03/14 05:23:07;;;;;;;13.80;9.68;;;;;;;8.03;87.17;102080.44;5137088;27;20026;-81
2022/03/14 05:25:32;;;;;;;14.52;10.77;;;;;;;8.04;87.32;102080.41;5137115;27;20470;-78
2022/03/14 05:27:58;;;;;;;17.25;11.05;;;;;;;7.87;87.42;102066.41;5136737;27;20050;-77
2022/03/14 05:30:24;;;;;;;14.88;10.85;;;;;;;8.01;87.29;102093.38;5137133;27;20038;-78
2022/03/14 05:32:50;;;;;;;15.88;10.48;;;;;;;8.01;87.11;102100.25;5118071;27;20425;-79
2022/03/14 05:35:16;;;;;;;16.10;9.90;;;;;;;7.86;87.23;102080.16;5136747;27;20023;-77
2022/03/14 05:37:43;;;;;;;14.60;10.35;;;;;;;7.80;87.09;102082.94;5136734;27;20493;-77
2022/03/14 05:40:15;;;;;;;15.75;11.10;;;;;;;7.90;87.48;102103.16;5136600;27;20019;-79
2022/03/14 05:42:45;;;;;;;16.65;11.00;;;;;;;7.88;87.38;102099.81;5136916;27;20098;-78
2022/03/14 05:45:12;;;;;;;15.77;10.80;;;;;;;7.95;87.23;102124.41;5136658;27;20026;-77
2022/03/14 05:47:38;;;;;;;15.65;10.48;;;;;;;7.95;87.33;102134.69;5136421;27;20034;-76
2022/03/14 05:50:04;;;;;;;19.42;11.60;;;;;;;7.87;87.17;102123.00;5136565;27;20024;-78
2022/03/14 06:11:23;;;;;;;20.02;13.68;;;;;;;7.92;87.23;102178.53;5075581;28;20117;-76
2022/03/14 06:14:17;;;;;;;;;;;;;;;;;;;;;
2022/03/14 06:16:42;;;;;;;21.85;14.88;;;;;;;7.60;87.58;102119.53;4976923;28;20051;-81
2022/03/14 06:19:15;;;;;;;21.33;14.00;;;;;;;7.99;87.77;102186.91;5074688;28;20535;-80
2022/03/14 06:21:40;;;;;;;22.20;13.68;;;;;;;8.01;87.62;102187.72;5074792;28;20112;-79
2022/03/14 06:24:08;;;;;;;26.90;15.52;;;;;;;8.03;87.52;102191.06;5074748;28;20099;-78
2022/03/14 06:26:34;;;;;;;23.17;15.98;;;;;;;7.78;87.54;102149.84;5074716;28;20035;-77
2022/03/14 06:29:03;;;;;;;22.65;14.77;;;;;;;7.82;87.86;102160.84;5074787;28;20438;-79
2022/03/14 06:31:31;;;;;;;22.48;15.20;;;;;;;8.03;87.41;102194.47;5056751;28;20016;-78
2022/03/14 06:33:56;;;;;;;27.05;16.70;;;;;;;7.99;87.64;102186.91;5074794;28;20028;-79
2022/03/14 06:36:21;;;;;;;23.20;15.80;;;;;;;7.83;87.12;102165.09;5074505;28;20466;-77
2022/03/14 06:38:47;;;;;;;25.65;16.00;;;;;;;8.15;87.55;102218.16;5074409;28;20020;-77
2022/03/14 06:41:12;;;;;;;23.55;15.68;;;;;;;8.15;87.50;102221.56;5074371;28;20476;-77
2022/03/14 06:43:37;;;;;;;24.25;16.50;;;;;;;8.08;87.44;102208.94;5074231;28;20020;-77
2022/03/14 06:46:06;;;;;;;23.13;15.88;;;;;;;8.20;87.17;102229.16;5074504;28;20052;-77
2022/03/14 06:48:39;;;;;;;24.95;16.45;;;;;;;8.01;87.31;102188.56;5074480;28;20047;-80
2022/03/14 06:51:04;;;;;;;24.85;16.08;;;;;;;8.24;86.91;102220.44;5074282;28;20021;-79
2022/03/14 06:53:30;;;;;;;26.30;17.95;;;;;;;8.13;86.84;102201.91;5074064;28;20028;-77
2022/03/14 06:55:55;;;;;;;23.42;16.30;;;;;;;8.20;86.44;102211.16;5074152;28;20031;-77
2022/03/14 06:58:22;;;;;;;25.77;16.52;;;;;;;8.22;86.43;102209.34;5074098;28;20052;-77
2022/03/14 07:00:48;;;;;;;24.42;16.45;;;;;;;8.43;86.25;102238.75;5073786;28;20420;-77
2022/03/14 07:03:14;;;;;;;27.35;16.98;;;;;;;8.29;85.97;102206.56;5074146;28;20021;-80
2022/03/14 07:05:40;;;;;;;23.63;15.93;;;;;;;8.39;85.91;102222.59;5073974;28;20021;-79
2022/03/14 07:08:05;;;;;;;26.17;16.83;;;;;;;8.41;85.64;102225.94;5073731;28;20082;-75
2022/03/14 07:10:31;;;;;;;23.25;15.65;;;;;;;8.37;85.50;102211.50;5073869;28;20017;-77
2022/03/14 07:12:56;;;;;;;24.95;17.02;;;;;;;8.62;85.29;102250.16;5073492;28;20052;-77
2022/03/14 07:15:25;;;;;;;26.05;16.45;;;;;;;8.67;85.17;102255.19;5073879;28;20021;-77
2022/03/14 07:17:51;;;;;;;26.85;16.75;;;;;;;8.69;85.05;102255.97;5073678;28;20028;-76
2022/03/14 07:20:18;;;;;;;26.70;17.17;;;;;;;8.69;84.74;102251.66;5073298;28;20080;-76
2022/03/14 07:23:12;;;;;;;27.23;17.75;;;;;;;8.78;84.49;102268.56;5054387;28;20033;-76
2022/03/14 07:25:38;;;;;;;31.50;16.67;;;;;;;8.80;84.57;102265.03;5073941;28;20045;-77
2022/03/14 07:28:07;;;;;;;24.23;16.00;;;;;;;8.79;84.08;102255.63;5073317;28;20032;-76
2022/03/14 07:30:33;;;;;;;30.10;17.05;;;;;;;8.90;83.99;102270.72;5073257;28;20024;-76
2022/03/14 07:32:59;;;;;;;24.75;17.45;;;;;;;8.94;83.86;102261.16;5073198;28;20475;-74
2022/03/14 07:35:26;;;;;;;23.38;16.30;;;;;;;8.73;83.42;102232.63;5073486;28;20029;-74
2022/03/14 07:37:52;;;;;;;28.63;17.08;;;;;;;8.95;83.53;102267.97;5073005;28;20031;-77
2022/03/14 07:40:17;;;;;;;27.88;17.33;;;;;;;8.93;83.17;102265.44;5073227;28;20032;-78
2022/03/14 07:42:45;;;;;;;27.23;17.02;;;;;;;8.98;83.06;102278.19;5073144;28;20111;-76
2022/03/14 07:45:13;;;;;;;29.65;17.02;;;;;;;8.77;82.86;102243.69;5073341;28;20032;-76
2022/03/14 07:47:41;;;;;;;25.75;17.10;;;;;;;9.02;83.05;102284.94;5073127;28;20480;-76
2022/03/14 07:50:09;;;;;;;28.15;17.98;;;;;;;9.04;82.88;102286.56;5072988;28;20111;-79
2022/03/14 07:52:35;;;;;;;26.08;17.95;;;;;;;9.08;82.64;102287.31;5072886;28;20032;-77
2022/03/14 07:55:02;;;;;;;29.05;17.50;;;;;;;9.13;82.43;102287.97;5072924;28;20078;-76
2022/03/14 07:57:27;;;;;;;26.55;17.95;;;;;;;9.15;82.09;102286.22;5073178;28;20039;-76
2022/03/14 07:59:53;;;;;;;27.70;16.95;;;;;;;9.13;81.95;102290.56;5072824;28;20033;-79
2022/03/14 08:02:18;;;;;;;27.70;17.85;;;;;;;9.16;81.70;102299.03;5072975;28;20041;-77
2022/03/14 08:04:46;;;;;;;29.63;17.75;;;;;;;9.24;81.62;102306.50;5072754;28;20024;-77
2022/03/14 08:07:13;;;;;;;26.48;18.38;;;;;;;9.03;81.74;102274.56;5072382;28;20537;-78
2022/03/14 08:09:39;;;;;;;29.17;18.75;;;;;;;9.25;81.53;102303.06;5072594;28;20031;-77
2022/03/14 08:12:05;;;;;;;27.13;17.55;;;;;;;9.08;81.56;102282.16;5072911;28;20025;-78
2022/03/14 08:14:32;;;;;;;26.80;17.63;;;;;;;9.29;81.35;102301.22;5072810;28;20016;-79
2022/03/14 08:17:13;;;;;;;29.95;18.70;;;;;;;8.83;81.22;102236.59;5074115;28;20036;-78
2022/03/14 08:19:38;;;;;;;28.00;17.63;;;;;;;9.21;81.14;102293.72;5072729;28;20364;-76
2022/03/14 08:22:04;;;;;;;30.05;19.70;;;;;;;9.40;80.47;102324.88;5072524;28;20031;-77
2022/03/14 08:24:30;;;;;;;28.90;18.52;;;;;;;9.38;80.84;102332.66;5072555;28;20033;-73
2022/03/14 08:26:56;;;;;;;32.28;19.65;;;;;;;9.32;80.90;102337.19;5054633;28;20083;-76
2022/03/14 08:29:21;;;;;;;29.75;19.23;;;;;;;9.05;80.87;102308.88;5072732;28;20472;-78
2022/03/14 08:31:47;;;;;;;27.15;18.67;;;;;;;9.22;81.03;102339.22;5054307;28;20036;-77
2022/03/14 08:34:13;;;;;;;32.53;20.63;;;;;;;9.17;80.71;102328.25;5054840;28;20035;-77
2022/03/14 08:36:40;;;;;;;29.63;21.15;;;;;;;9.14;80.89;102328.31;5072468;28;20031;-77
2022/03/14 08:39:07;;;;;;;36.22;20.70;;;;;;;9.28;80.97;102351.09;5072362;28;20029;-77
2022/03/14 08:41:34;;;;;;;29.83;20.83;;;;;;;9.14;80.44;102326.63;5072067;28;20036;-76
2022/03/14 08:44:00;;;;;;;29.73;21.95;;;;;;;9.38;80.23;102365.34;5075974;28;20468;-75
2022/03/14 08:46:25;;;;;;;31.77;21.80;;;;;;;9.37;80.07;102361.94;5076485;28;20086;-77
2022/03/14 08:48:50;;;;;;;33.03;19.92;;;;;;;9.41;79.95;102357.50;5058375;28;20527;-79
2022/03/14 08:51:16;;;;;;;33.35;21.38;;;;;;;9.63;79.45;102370.50;5076490;28;20028;-78
2022/03/14 08:53:41;;;;;;;29.30;20.25;;;;;;;9.74;78.57;102368.41;5076245;28;20025;-77
2022/03/14 08:56:07;;;;;;;29.25;18.98;;;;;;;9.93;77.78;102377.19;5058633;28;20028;-81
2022/03/14 08:58:33;;;;;;;28.67;19.20;;;;;;;9.98;78.11;102362.38;5076593;28;20036;-78
2022/03/14 09:00:59;;;;;;;31.38;18.95;;;;;;;10.19;77.22;102383.16;5076208;28;20048;-83
2022/03/14 09:03:27;;;;;;;29.27;18.20;;;;;;;10.29;76.23;102400.00;5076193;28;20024;-81
2022/03/14 09:05:58;;;;;;;29.58;18.00;;;;;;;10.31;75.69;102399.06;5076226;28;20387;-84
2022/03/14 09:08:25;;;;;;;36.80;18.70;;;;;;;10.43;75.17;102407.28;5075895;28;20095;-81
2022/03/14 09:10:51;;;;;;;32.17;19.40;;;;;;;10.39;75.20;102401.34;5076212;28;20045;-77
2022/03/14 09:13:17;;;;;;;29.60;18.45;;;;;;;10.25;74.88;102401.88;5076272;28;20031;-78
2022/03/14 09:15:42;;;;;;;32.33;19.55;;;;;;;10.29;74.77;102410.34;5058158;28;20028;-86
2022/03/14 09:18:08;;;;;;;32.22;19.40;;;;;;;10.10;75.08;102381.75;5075992;28;20032;-85
2022/03/14 09:20:38;;;;;;;35.20;19.88;;;;;;;10.14;75.08;102380.75;5076142;28;20052;-85
2022/03/14 09:23:04;;;;;;;29.77;19.70;;;;;;;10.47;74.54;102422.59;5075773;28;20495;-91
2022/03/14 09:25:36;;;;;;;30.83;19.15;;;;;;;10.11;74.07;102359.34;5075926;28;20028;-78
2022/03/14 09:28:02;;;;;;;29.92;19.73;;;;;;;10.39;74.13;102411.69;5075154;28;20044;-82
2022/03/14 09:30:31;;;;;;;33.15;20.25;;;;;;;10.44;73.85;102435.63;5075691;28;20147;-78
2022/03/14 09:32:56;;;;;;;34.33;21.08;;;;;;;10.05;74.19;102379.34;5075455;28;20121;-80
2022/03/14 09:35:25;;;;;;;28.15;19.00;;;;;;;10.42;73.72;102428.81;5075587;28;20056;-78
2022/03/14 09:37:55;;;;;;;27.45;18.55;;;;;;;10.47;73.85;102417.41;5075503;28;20054;-79
2022/03/14 09:40:23;;;;;;;30.08;19.77;;;;;;;10.71;73.70;102458.72;5075222;28;20024;-80
2022/03/14 09:42:52;;;;;;;29.52;20.20;;;;;;;10.29;73.79;102400.84;5075328;28;20023;-78
2022/03/14 09:45:19;;;;;;;26.98;18.55;;;;;;;10.45;73.91;102452.78;5075440;28;20040;-78
2022/03/14 09:48:23;;;;;;;25.23;16.67;;;;;;;9.84;73.99;102343.13;5075385;28;20506;-77
2022/03/14 09:51:06;;;;;;;26.00;15.15;;;;;;;9.77;73.61;102321.88;5073623;28;20495;-76
2022/03/14 09:53:33;;;;;;;26.27;15.75;;;;;;;10.35;73.35;102423.03;5075172;28;20021;-85
2022/03/14 09:56:02;;;;;;;22.35;15.77;;;;;;;10.78;73.56;102480.84;5075029;28;20024;-77
2022/03/14 09:59:05;;;;;;;25.38;15.57;;;;;;;11.22;73.16;102491.25;5074831;28;20116;-79
2022/03/14 10:01:31;;;;;;;24.85;16.90;;;;;;;11.24;71.36;102459.25;5056960;28;20036;-87
2022/03/14 10:03:56;;;;;;;23.17;15.52;;;;;;;11.39;70.62;102494.84;5057208;28;20472;-85
2022/03/14 10:06:34;;;;;;;22.48;14.52;;;;;;;11.26;71.26;102469.53;5075030;28;20029;-78
2022/03/14 10:09:00;;;;;;;22.70;13.93;;;;;;;11.24;70.95;102454.09;5074796;28;20533;-85
2022/03/14 10:11:31;;;;;;;18.05;13.57;;;;;;;11.37;70.17;102463.03;5074877;28;20029;-79
2022/03/14 10:14:10;;;;;;;19.42;13.27;;;;;;;11.29;70.15;102446.13;5074834;28;20100;-79
2022/03/14 10:16:41;;;;;;;20.30;14.10;;;;;;;11.06;70.46;102411.69;5024497;28;20045;-78
2022/03/14 10:19:27;;;;;;;;;;;;;;;11.76;70.14;102496.78;5057646;28;20051;-80
2022/03/14 10:21:52;;;;;;;23.42;15.80;;;;;;;11.97;68.56;102492.50;4974680;28;20029;-85
2022/03/14 10:24:22;;;;;;;20.65;14.32;;;;;;;12.09;68.29;102467.81;4973901;28;20030;-78
2022/03/14 10:26:50;;;;;;;21.35;16.02;;;;;;;12.29;66.61;102482.50;4973837;28;20517;-78
2022/03/14 10:29:18;;;;;;;24.05;16.48;;;;;;;12.32;66.28;102491.00;4973824;28;20031;-86
2022/03/14 10:32:18;;;;;;;21.33;14.70;;;;;;;11.81;65.99;102411.22;4957431;28;20042;-84
2022/03/14 10:34:51;;;;;;;21.55;13.35;;;;;;;11.71;65.98;102394.38;4973783;28;20058;-87
2022/03/14 10:37:17;;;;;;;19.52;12.38;;;;;;;12.49;64.92;102515.31;4973757;28;20043;-87
2022/03/14 10:39:45;;;;;;;17.88;11.63;;;;;;;12.06;63.88;102470.53;4973458;28;20398;-79
2022/03/14 10:42:38;;;;;;;18.23;12.15;;;;;;;12.33;65.38;102509.97;4973322;28;20085;-79
2022/03/14 10:45:10;;;;;;;17.48;12.70;;;;;;;12.54;64.37;102526.31;4973458;28;20031;-86
2022/03/14 10:47:38;;;;;;;19.25;13.05;;;;;;;12.48;63.90;102503.25;4973428;28;20134;-79
2022/03/14 10:50:33;;;;;;;16.38;11.48;;;;;;;12.72;64.69;102530.69;4973465;28;20027;-81
2022/03/14 10:53:12;;;;;;;16.60;10.63;;;;;;;12.64;63.85;102530.19;5025234;28;20123;-88
2022/03/14 10:55:58;;;;;;;15.85;10.52;;;;;;;12.14;63.73;102449.50;5073877;28;20037;-81
2022/03/14 11:01:50;;;;;;;15.27;9.38;;;;;;;12.31;65.00;102535.09;5073740;28;20067;-80
2022/03/14 11:04:47;;;;;;;16.23;8.88;;;;;;;11.43;64.67;102372.25;5056060;28;20044;-81
2022/03/14 11:07:53;;;;;;;11.95;8.18;;;;;;;11.62;63.23;102363.72;4972064;28;20526;-80
2022/03/14 11:11:04;;;;;;;15.32;9.27;;;;;;;12.74;62.62;102549.59;4971820;28;20043;-82
2022/03/14 11:14:05;;;;;;;13.13;7.53;;;;;;;12.45;62.17;102522.38;4972998;28;20038;-79
2022/03/14 11:17:26;;;;;;;13.52;8.43;;;;;;;12.43;63.50;102544.94;5138725;23;20060;-78
2022/03/14 11:22:31;;;;;;;17.70;8.98;;;;;;;11.68;62.30;102430.72;5083917;22;20056;-79
2022/03/14 11:24:58;;;;;;;12.82;8.85;;;;;;;12.19;62.56;102500.22;5058052;22;20112;-84
2022/03/14 11:27:44;;;;;;;14.73;8.90;;;;;;;11.99;62.04;102462.19;5053814;22;20059;-75
2022/03/14 11:30:11;;;;;;;11.68;9.07;;;;;;;11.47;62.32;102396.25;5057740;28;20028;-85
2022/03/14 11:32:44;;;;;;;17.20;9.30;;;;;;;11.38;62.40;102396.63;5068100;28;20100;-78
2022/03/14 11:35:16;;;;;;;14.43;9.10;;;;;;;11.68;62.82;102451.44;5058233;22;20179;-78
2022/03/14 11:37:57;;;;;;;15.30;10.43;;;;;;;11.92;62.83;102507.41;5052885;28;20021;-76
2022/03/14 11:40:30;;;;;;;16.88;9.77;;;;;;;11.34;62.70;102406.25;5053080;28;20151;-78
2022/03/14 11:42:57;;;;;;;16.58;8.88;;;;;;;12.40;61.40;102568.38;5051555;28;20036;-84
2022/03/14 11:45:25;;;;;;;12.68;8.20;;;;;;;12.00;60.85;102482.03;5071857;22;20052;-79
2022/03/14 11:47:54;;;;;;;15.27;7.40;;;;;;;12.22;60.21;102494.88;5072378;28;20021;-76
2022/03/14 11:50:24;;;;;;;11.43;7.90;;;;;;;12.53;60.31;102515.09;5072664;28;20052;-80
2022/03/14 11:52:50;;;;;;;11.88;6.90;;;;;;;12.35;60.21;102446.81;5072733;28;20036;-85
2022/03/14 11:55:30;;;;;;;9.73;6.70;;;;;;;13.17;59.14;102540.72;5072196;28;20028;-82